Time;durP1;ratioP1;P1;durP2;ratioP2;P2;SDS_P1;SDS_P2;PMS_P1;PMS_P2;Temp;Humidity;BMP_temperature;BMP_pressure;BME280_temperature;BME280_humidity;BME280_pressure;Samples;Min_cycle;Max_cycle;Signal;HPM_P1;HPM_P2
2021/10/01 00:02:07;;;;;;;0.70;0.60;;;;;;;11.59;100.00;-20997.41;4993108;28;20512;-74
2021/10/01 00:04:34;;;;;;;0.70;0.60;;;;;;;11.67;100.00;-20999.34;4976205;28;20578;-74
2021/10/01 00:07:01;;;;;;;0.70;0.70;;;;;;;11.73;100.00;-21001.00;4978015;28;20412;-74
2021/10/01 00:09:30;;;;;;;0.77;0.70;;;;;;;11.51;100.00;-20995.19;4972953;28;20476;-74
2021/10/01 00:11:56;;;;;;;0.70;0.70;;;;;;;11.50;100.00;-20994.91;4974458;28;20450;-73
2021/10/01 00:14:26;;;;;;;0.70;0.70;;;;;;;11.45;100.00;-20993.41;4976980;28;20924;-74
2021/10/01 00:16:53;;;;;;;0.80;0.70;;;;;;;11.36;100.00;-20991.19;4960233;28;20442;-74
2021/10/01 00:19:21;;;;;;;0.70;0.60;;;;;;;11.27;100.00;-20988.56;4976029;28;20439;-73
2021/10/01 00:21:48;;;;;;;0.70;0.70;;;;;;;11.31;100.00;-20989.69;4977615;28;20768;-73
2021/10/01 00:24:16;;;;;;;0.70;0.60;;;;;;;11.30;100.00;-20989.41;4976246;28;20489;-73
2021/10/01 00:26:45;;;;;;;0.70;0.63;;;;;;;11.28;100.00;-20988.84;4976887;28;20509;-73
2021/10/01 00:29:12;;;;;;;0.70;0.60;;;;;;;11.16;100.00;-20985.53;4974928;28;20438;-73
2021/10/01 00:31:41;;;;;;;0.70;0.60;;;;;;;11.20;100.00;-20986.63;4960163;28;20462;-74
2021/10/01 00:34:16;;;;;;;0.70;0.60;;;;;;;11.13;100.00;-20984.84;4975414;28;20454;-74
2021/10/01 00:36:49;;;;;;;0.70;0.60;;;;;;;11.26;100.00;-20988.44;4975967;28;20439;-73
2021/10/01 00:39:21;;;;;;;0.70;0.60;;;;;;;11.29;100.00;-20989.25;4975830;28;20475;-73
2021/10/01 00:41:54;;;;;;;0.70;0.60;;;;;;;11.25;100.00;-20988.00;4960333;28;20438;-73
2021/10/01 00:44:23;;;;;;;0.70;0.60;;;;;;;11.26;100.00;-20988.28;4975914;28;20502;-73
2021/10/01 00:46:51;;;;;;;0.80;0.70;;;;;;;11.24;100.00;-20987.75;4975976;28;20450;-74
2021/10/01 00:49:19;;;;;;;0.70;0.60;;;;;;;11.15;100.00;-20985.25;4975243;28;20437;-74
2021/10/01 00:51:47;;;;;;;0.70;0.60;;;;;;;11.10;100.00;-20984.16;4975657;28;20935;-72
2021/10/01 00:54:14;;;;;;;0.70;0.60;;;;;;;11.06;100.00;-20982.91;4976931;28;20550;-74
2021/10/01 00:56:41;;;;;;;0.70;0.60;;;;;;;11.05;100.00;-20982.75;4975749;28;20487;-73
2021/10/01 00:59:14;;;;;;;0.80;0.70;;;;;;;11.05;100.00;-20982.63;4974686;28;20466;-74
2021/10/01 01:01:46;;;;;;;0.73;0.63;;;;;;;11.08;100.00;-20983.59;4974609;28;20963;-73
2021/10/01 01:04:21;;;;;;;0.70;0.70;;;;;;;11.05;100.00;-20982.75;4967446;28;20498;-72
2021/10/01 01:07:00;;;;;;;0.70;0.60;;;;;;;11.06;100.00;-20982.91;4969925;28;20921;-73
2021/10/01 01:09:46;;;;;;;0.80;0.80;;;;;;;11.02;100.00;-20981.94;4956238;28;20903;-73
2021/10/01 01:12:30;;;;;;;0.70;0.60;;;;;;;11.04;100.00;-20982.34;4974286;28;20450;-73
2021/10/01 01:15:09;;;;;;;0.70;0.60;;;;;;;11.08;100.00;-20983.59;4960266;28;20449;-73
2021/10/01 01:17:54;;;;;;;0.80;0.70;;;;;;;11.02;100.00;-20981.94;4960066;28;20471;-72
2021/10/01 01:20:30;;;;;;;0.80;0.70;;;;;;;10.89;100.00;-20978.47;4959400;28;20454;-73
2021/10/01 01:23:20;;;;;;;0.70;0.60;;;;;;;10.74;100.00;-20974.31;4988016;28;20460;-72
2021/10/01 01:26:11;;;;;;;0.70;0.60;;;;;;;10.64;100.00;-20971.56;4971917;28;20995;-73
2021/10/01 01:29:02;;;;;;;0.70;0.70;;;;;;;10.57;100.00;-20969.63;4975263;28;20504;-72
2021/10/01 01:31:45;;;;;;;0.70;0.70;;;;;;;10.64;100.00;-20971.69;4975470;28;20416;-74
2021/10/01 01:34:25;;;;;;;0.70;0.60;;;;;;;10.60;100.00;-20970.59;4973670;28;20814;-73
2021/10/01 01:37:01;;;;;;;0.70;0.60;;;;;;;10.50;100.00;-20967.81;4974699;28;21331;-73
2021/10/01 01:39:37;;;;;;;0.70;0.60;;;;;;;10.42;100.00;-20965.63;4975221;28;20549;-73
2021/10/01 01:42:12;;;;;;;0.70;0.60;;;;;;;10.40;100.00;-20965.06;4975287;28;20458;-72
2021/10/01 01:44:48;;;;;;;0.70;0.60;;;;;;;10.39;100.00;-20964.78;4975582;28;20478;-73
2021/10/01 01:47:27;;;;;;;0.70;0.60;;;;;;;10.32;100.00;-20962.84;4960039;28;20458;-73
2021/10/01 01:50:01;;;;;;;0.70;0.60;;;;;;;10.31;100.00;-20962.72;4974371;28;20458;-72
2021/10/01 01:52:34;;;;;;;0.70;0.60;;;;;;;10.30;100.00;-20962.44;4975155;28;20463;-73
2021/10/01 01:55:02;;;;;;;0.70;0.60;;;;;;;10.27;100.00;-20961.59;4975656;28;20435;-73
2021/10/01 01:57:31;;;;;;;0.70;0.60;;;;;;;10.33;100.00;-20963.13;4974694;28;20847;-72
2021/10/01 02:00:00;;;;;;;0.70;0.60;;;;;;;10.33;100.00;-20963.13;4974988;28;20444;-73
2021/10/01 02:02:49;;;;;;;0.70;0.63;;;;;;;10.41;100.00;-20965.34;4976725;28;20496;-73
2021/10/01 02:05:20;;;;;;;0.70;0.60;;;;;;;10.44;100.00;-20966.16;4966010;28;20573;-72
2021/10/01 02:07:49;;;;;;;0.70;0.60;;;;;;;10.47;100.00;-20967.00;4971857;28;20470;-74
2021/10/01 02:10:20;;;;;;;0.70;0.60;;;;;;;10.50;100.00;-20967.81;4975158;28;20453;-74
2021/10/01 02:12:53;;;;;;;0.70;0.60;;;;;;;10.57;100.00;-20969.63;4974924;28;20436;-73
2021/10/01 02:15:22;;;;;;;0.70;0.70;;;;;;;10.56;100.00;-20969.34;4973768;28;20430;-72
2021/10/01 02:17:54;;;;;;;0.70;0.60;;;;;;;10.52;100.00;-20968.25;4974825;28;20443;-73
2021/10/01 02:20:25;;;;;;;0.70;0.60;;;;;;;10.48;100.00;-20967.28;4974469;28;20524;-73
2021/10/01 02:22:53;;;;;;;0.70;0.60;;;;;;;10.52;100.00;-20968.25;4973840;28;20565;-73
2021/10/01 02:28:12;;;;;;;0.70;0.60;;;;;;;10.47;100.00;-20967.00;4969835;28;20455;-73
2021/10/01 02:30:41;;;;;;;0.70;0.60;;;;;;;10.44;100.00;-20966.16;4973135;28;20464;-73
2021/10/01 02:33:13;;;;;;;0.70;0.60;;;;;;;10.39;100.00;-20964.78;4975161;28;20431;-73
2021/10/01 02:35:41;;;;;;;0.70;0.60;;;;;;;10.29;100.00;-20962.00;4974494;28;20432;-72
2021/10/01 02:38:08;;;;;;;0.70;0.70;;;;;;;10.34;100.00;-20963.41;4989783;28;20477;-73
2021/10/01 02:40:35;;;;;;;0.70;0.60;;;;;;;10.29;100.00;-20962.00;4974385;28;21048;-73
2021/10/01 02:43:03;;;;;;;0.70;0.60;;;;;;;10.22;100.00;-20960.22;4973739;28;20442;-73
2021/10/01 02:45:31;;;;;;;0.70;0.60;;;;;;;10.29;100.00;-20962.00;4973714;28;20477;-73
2021/10/01 02:48:00;;;;;;;0.70;0.60;;;;;;;10.41;100.00;-20965.34;4973748;28;20529;-72
2021/10/01 02:50:28;;;;;;;0.70;0.60;;;;;;;10.55;100.00;-20969.06;4973819;28;20446;-72
2021/10/01 02:53:04;;;;;;;3.50;0.90;;;;;;;10.55;100.00;-20969.22;4973236;28;20466;-72
2021/10/01 02:55:41;;;;;;;0.70;0.60;;;;;;;10.66;100.00;-20971.97;4973730;28;20434;-73
2021/10/01 02:58:12;;;;;;;0.70;0.60;;;;;;;10.66;100.00;-20971.97;4971688;28;20453;-72
2021/10/01 03:00:40;;;;;;;0.70;0.60;;;;;;;10.58;100.00;-20970.03;4972608;28;20542;-73
2021/10/01 03:03:12;;;;;;;0.70;0.60;;;;;;;10.60;100.00;-20970.59;4973703;28;20437;-72
2021/10/01 03:05:42;;;;;;;0.70;0.60;;;;;;;10.69;100.00;-20972.81;4962512;28;21076;-73
2021/10/01 03:08:14;;;;;;;0.70;0.60;;;;;;;10.73;100.00;-20974.06;4957131;28;20472;-73
2021/10/01 03:10:43;;;;;;;0.70;0.53;;;;;;;10.72;100.00;-20973.63;4973590;28;20498;-72
2021/10/01 03:13:14;;;;;;;0.70;0.60;;;;;;;10.64;100.00;-20971.69;4973753;28;20448;-73
2021/10/01 03:15:43;;;;;;;0.70;0.60;;;;;;;10.59;100.00;-20970.31;4973170;28;20435;-73
2021/10/01 03:18:10;;;;;;;0.70;0.60;;;;;;;10.55;100.00;-20969.22;4973378;28;20427;-72
2021/10/01 03:20:38;;;;;;;0.70;0.60;;;;;;;10.51;100.00;-20968.09;4973461;28;20434;-73
2021/10/01 03:23:06;;;;;;;0.80;0.60;;;;;;;10.52;100.00;-20968.25;4973005;28;20465;-73
2021/10/01 03:25:36;;;;;;;0.70;0.60;;;;;;;10.62;100.00;-20971.16;4970102;28;20847;-72
2021/10/01 03:28:05;;;;;;;0.70;0.60;;;;;;;10.73;100.00;-20973.91;4969922;28;20932;-73
2021/10/01 03:30:33;;;;;;;0.70;0.60;;;;;;;10.72;100.00;-20973.63;4986175;28;20502;-72
2021/10/01 03:33:00;;;;;;;0.70;0.63;;;;;;;10.70;100.00;-20973.22;4973325;28;20449;-72
2021/10/01 03:35:27;;;;;;;0.70;0.60;;;;;;;10.71;100.00;-20973.34;4956993;28;20442;-73
2021/10/01 03:37:54;;;;;;;0.70;0.60;;;;;;;10.74;100.00;-20974.19;4956686;28;20471;-72
2021/10/01 03:40:30;;;;;;;0.70;0.60;;;;;;;10.72;100.00;-20973.63;4987035;28;20452;-72
2021/10/01 03:42:59;;;;;;;0.70;0.60;;;;;;;10.80;100.00;-20975.97;4986100;28;20467;-73
2021/10/01 03:45:28;;;;;;;0.70;0.60;;;;;;;10.83;100.00;-20976.81;4986129;28;20555;-72
2021/10/01 03:47:56;;;;;;;0.70;0.70;;;;;;;10.98;100.00;-20980.81;4989438;28;20822;-74
2021/10/01 03:50:26;;;;;;;0.70;0.60;;;;;;;11.14;100.00;-20985.09;4972816;28;20487;-73
2021/10/01 03:52:53;;;;;;;0.70;0.60;;;;;;;11.21;100.00;-20986.91;4972481;28;20478;-72
2021/10/01 03:55:21;;;;;;;0.70;0.60;;;;;;;11.21;100.00;-20987.03;4972948;28;20461;-72
2021/10/01 03:57:50;;;;;;;0.80;0.80;;;;;;;11.28;100.00;-20988.84;4970266;28;20560;-73
2021/10/01 04:00:22;;;;;;;0.70;0.60;;;;;;;11.35;100.00;-20990.78;4994009;28;20506;-73
2021/10/01 04:02:49;;;;;;;0.70;0.60;;;;;;;11.35;100.00;-20990.78;4971101;28;20497;-73
2021/10/01 04:05:20;;;;;;;0.70;0.60;;;;;;;11.32;100.00;-20989.94;4970861;28;20478;-73
2021/10/01 04:07:47;;;;;;;0.70;0.63;;;;;;;11.26;100.00;-20988.28;4966154;28;20988;-73
2021/10/01 04:10:17;;;;;;;0.70;0.60;;;;;;;11.18;100.00;-20986.06;4951780;28;20452;-73
2021/10/01 04:12:46;;;;;;;0.70;0.60;;;;;;;11.19;100.00;-20986.50;4950999;29;20487;-73
2021/10/01 04:15:25;;;;;;;0.70;0.60;;;;;;;11.20;100.00;-20986.78;4951609;29;20476;-72
2021/10/01 04:17:53;;;;;;;0.70;0.60;;;;;;;11.11;100.00;-20984.41;4953242;29;20525;-73
2021/10/01 04:20:21;;;;;;;0.70;0.60;;;;;;;11.09;100.00;-20983.72;4953254;29;20449;-72
2021/10/01 04:22:48;;;;;;;0.70;0.60;;;;;;;11.02;100.00;-20981.94;4963665;28;20473;-73
2021/10/01 04:25:38;;;;;;;0.70;0.60;;;;;;;11.08;100.00;-20983.59;4985706;28;20477;-73
2021/10/01 04:28:07;;;;;;;0.70;0.60;;;;;;;11.03;100.00;-20982.22;4972439;28;20459;-73
2021/10/01 04:30:42;;;;;;;0.70;0.60;;;;;;;11.00;100.00;-20981.38;4971859;28;20451;-72
2021/10/01 04:33:18;;;;;;;0.70;0.60;;;;;;;10.96;100.00;-20980.28;4972011;28;20586;-73
2021/10/01 04:35:46;;;;;;;0.70;0.60;;;;;;;10.88;100.00;-20978.06;4968404;28;20458;-72
2021/10/01 04:38:14;;;;;;;0.70;0.60;;;;;;;10.93;100.00;-20979.31;4972137;28;20865;-72
2021/10/01 04:40:41;;;;;;;0.70;0.60;;;;;;;10.94;100.00;-20979.59;4972493;28;20440;-73
2021/10/01 04:43:09;;;;;;;0.70;0.60;;;;;;;10.94;100.00;-20979.72;4958508;28;20525;-72
2021/10/01 04:45:52;;;;;;;0.70;0.60;;;;;;;10.97;100.00;-20980.56;4975760;28;20485;-72
2021/10/01 04:48:20;;;;;;;0.70;0.60;;;;;;;10.95;100.00;-20979.84;4976016;28;20828;-74
2021/10/01 04:50:47;;;;;;;0.70;0.60;;;;;;;10.89;100.00;-20978.47;4975873;28;20446;-74
2021/10/01 04:53:14;;;;;;;0.70;0.60;;;;;;;10.88;100.00;-20978.06;4975368;28;21070;-72
2021/10/01 04:55:41;;;;;;;0.70;0.60;;;;;;;10.88;100.00;-20978.19;4975863;28;20514;-72
2021/10/01 04:58:09;;;;;;;0.70;0.60;;;;;;;10.88;100.00;-20978.19;4975577;28;20434;-73
2021/10/01 05:01:01;;;;;;;0.70;0.60;;;;;;;10.87;100.00;-20977.91;4969321;28;20427;-73
2021/10/01 05:03:47;;;;;;;0.70;0.57;;;;;;;10.77;100.00;-20975.03;4959200;28;20512;-72
2021/10/01 05:06:33;;;;;;;0.70;0.60;;;;;;;10.76;100.00;-20974.88;4975863;28;20459;-72
2021/10/01 05:09:19;;;;;;;0.70;0.57;;;;;;;10.70;100.00;-20973.22;4977076;28;20973;-72
2021/10/01 05:12:04;;;;;;;0.70;0.60;;;;;;;10.70;100.00;-20973.09;4976792;28;20404;-72
2021/10/01 05:14:50;;;;;;;0.70;0.60;;;;;;;10.72;100.00;-20973.78;4976776;28;20421;-74
2021/10/01 05:17:39;;;;;;;0.70;0.60;;;;;;;10.73;100.00;-20974.06;4976437;28;20423;-72
2021/10/01 05:20:45;;;;;;;0.70;0.60;;;;;;;10.64;100.00;-20971.69;5012898;28;20433;-72
2021/10/01 05:23:20;;;;;;;0.80;0.77;;;;;;;10.64;100.00;-20971.56;4981852;28;20531;-72
2021/10/01 05:25:47;;;;;;;0.70;0.60;;;;;;;10.59;100.00;-20970.31;4983663;28;20569;-73
2021/10/01 05:28:14;;;;;;;0.70;0.50;;;;;;;10.58;100.00;-20970.03;4975167;28;20959;-74
2021/10/01 05:30:41;;;;;;;0.77;0.70;;;;;;;10.55;100.00;-20969.22;4971533;28;20519;-74
2021/10/01 05:33:13;;;;;;;0.70;0.60;;;;;;;10.52;100.00;-20968.25;4957196;28;20524;-72
2021/10/01 05:35:43;;;;;;;0.70;0.60;;;;;;;10.66;100.00;-20971.97;4955361;28;20445;-72
2021/10/01 05:38:11;;;;;;;0.70;0.60;;;;;;;10.61;100.00;-20970.72;4971986;28;20508;-72
2021/10/01 05:40:39;;;;;;;0.70;0.60;;;;;;;10.51;100.00;-20967.97;4980020;28;20462;-73
2021/10/01 05:43:07;;;;;;;0.70;0.60;;;;;;;10.43;100.00;-20965.88;4975142;28;20824;-72
2021/10/01 05:45:34;;;;;;;0.70;0.57;;;;;;;10.54;100.00;-20968.78;4976085;28;20475;-73
2021/10/01 05:48:45;;;;;;;0.70;0.60;;;;;;;10.57;100.00;-20969.63;4976407;28;20413;-72
2021/10/01 05:51:31;;;;;;;0.70;0.60;;;;;;;10.58;100.00;-20970.03;4976456;28;20407;-72
2021/10/01 05:54:23;;;;;;;0.70;0.60;;;;;;;10.61;100.00;-20970.88;4973293;28;20542;-72
2021/10/01 05:57:03;;;;;;;0.70;0.60;;;;;;;10.58;100.00;-20970.03;4969647;28;20443;-72
2021/10/01 06:00:07;;;;;;;0.70;0.60;;;;;;;10.59;100.00;-20970.31;4973419;28;20448;-72
2021/10/01 06:02:40;;;;;;;0.70;0.70;;;;;;;10.66;100.00;-20971.97;4974934;28;20417;-72
2021/10/01 06:05:10;;;;;;;0.70;0.60;;;;;;;10.68;100.00;-20972.53;4958127;28;20457;-73
2021/10/01 06:07:37;;;;;;;0.70;0.70;;;;;;;10.72;100.00;-20973.63;4974357;28;20471;-73
2021/10/01 06:10:05;;;;;;;0.70;0.60;;;;;;;10.71;100.00;-20973.50;4974453;28;20925;-73
2021/10/01 06:12:32;;;;;;;0.70;0.63;;;;;;;10.75;100.00;-20974.59;4973785;28;20483;-72
2021/10/01 06:15:00;;;;;;;0.70;0.60;;;;;;;10.78;100.00;-20975.44;4990417;28;20532;-72
2021/10/01 06:17:28;;;;;;;0.70;0.60;;;;;;;10.79;100.00;-20975.56;4973495;28;20447;-72
2021/10/01 06:19:54;;;;;;;0.70;0.60;;;;;;;10.83;100.00;-20976.69;4998448;28;20437;-72
2021/10/01 06:22:24;;;;;;;0.70;0.60;;;;;;;10.81;100.00;-20976.13;4973684;28;20475;-73
2021/10/01 06:24:51;;;;;;;0.70;0.60;;;;;;;10.81;100.00;-20976.13;4974068;28;20469;-72
2021/10/01 06:27:19;;;;;;;0.70;0.60;;;;;;;10.83;100.00;-20976.69;4975323;28;20541;-74
2021/10/01 06:29:46;;;;;;;0.70;0.60;;;;;;;10.83;100.00;-20976.69;4966001;28;20483;-74
2021/10/01 06:32:13;;;;;;;0.70;0.60;;;;;;;10.89;100.00;-20978.34;4990153;28;20963;-72
2021/10/01 06:34:40;;;;;;;0.70;0.57;;;;;;;10.86;100.00;-20977.50;4974839;28;20432;-73
2021/10/01 06:37:07;;;;;;;0.70;0.60;;;;;;;10.97;100.00;-20980.56;4989559;28;20474;-73
2021/10/01 06:39:35;;;;;;;0.70;0.70;;;;;;;10.96;100.00;-20980.28;4974784;28;20438;-73
2021/10/01 06:42:04;;;;;;;0.70;0.60;;;;;;;11.02;100.00;-20981.94;4975332;28;20767;-73
2021/10/01 06:44:34;;;;;;;0.70;0.70;;;;;;;11.09;100.00;-20983.72;4974658;28;20947;-72
2021/10/01 06:47:05;;;;;;;0.70;0.60;;;;;;;11.10;100.00;-20984.16;4988623;28;20518;-73
2021/10/01 06:49:57;;;;;;;0.80;0.70;;;;;;;11.10;100.00;-20984.16;4973647;28;21050;-72
2021/10/01 07:23:05;;;;;;;0.80;0.70;;;;;;;12.20;100.00;-21013.84;4974619;28;20460;-73
2021/10/01 08:18:28;;;;;;;0.77;0.70;;;;;;;14.24;100.00;-21068.88;4977212;28;20437;-74
2021/10/01 08:20:56;;;;;;;0.70;0.60;;;;;;;14.44;100.00;-21074.38;4977940;28;20416;-73
2021/10/01 08:23:23;;;;;;;0.70;0.60;;;;;;;14.48;100.00;-21075.47;4976220;28;20466;-73
2021/10/01 08:25:50;;;;;;;0.70;0.60;;;;;;;14.59;100.00;-21078.22;4977641;28;20479;-73
2021/10/01 08:28:17;;;;;;;0.80;0.70;;;;;;;14.74;100.00;-21082.50;4960547;28;20441;-72
2021/10/01 08:31:04;;;;;;;0.70;0.60;;;;;;;14.79;100.00;-21083.72;4975706;28;20482;-73
2021/10/01 08:33:33;;;;;;;0.70;0.60;;;;;;;14.77;100.00;-21083.06;4959484;28;20490;-73
2021/10/01 08:36:01;;;;;;;0.80;0.70;;;;;;;14.91;100.00;-21087.03;4984259;28;20447;-74
2021/10/01 08:38:27;;;;;;;0.80;0.80;;;;;;;15.23;100.00;-21095.69;4977485;28;20494;-73
2021/10/01 08:40:55;;;;;;;0.70;0.70;;;;;;;15.33;100.00;-21098.31;4977485;28;20457;-74
2021/10/01 08:43:24;;;;;;;0.70;0.70;;;;;;;15.65;100.00;-21106.84;4991082;28;20500;-75
2021/10/01 08:45:52;;;;;;;1.00;0.90;;;;;;;16.10;100.00;-21118.94;4976891;28;20454;-74
2021/10/01 08:48:20;;;;;;;0.80;0.70;;;;;;;16.57;100.00;-21131.56;4975812;28;20454;-72
2021/10/01 08:50:49;;;;;;;1.10;1.00;;;;;;;17.28;100.00;-21150.78;4976404;28;20426;-73
2021/10/01 08:53:16;;;;;;;0.70;0.60;;;;;;;17.78;100.00;-21164.22;4975464;28;20522;-75
2021/10/01 08:55:46;;;;;;;0.80;0.70;;;;;;;18.40;100.00;-21180.78;4977016;28;20804;-75
2021/10/01 08:58:14;;;;;;;0.80;0.70;;;;;;;18.88;100.00;-21193.53;4976185;28;20439;-75
2021/10/01 09:00:41;;;;;;;0.70;0.60;;;;;;;19.45;100.00;-21208.84;4977044;28;20515;-75
2021/10/01 09:03:08;;;;;;;0.80;0.70;;;;;;;20.39;100.00;-21234.00;4977113;28;20463;-74
2021/10/01 09:05:37;;;;;;;0.70;0.60;;;;;;;20.84;100.00;-21246.00;4976291;28;20476;-74
2021/10/01 09:08:13;;;;;;;0.80;0.70;;;;;;;20.29;100.00;-21231.41;4975421;28;20503;-75
2021/10/01 09:10:40;;;;;;;0.80;0.70;;;;;;;20.58;100.00;-21239.19;4990979;28;20494;-74
2021/10/01 09:13:09;;;;;;;0.70;0.60;;;;;;;20.58;100.00;-21239.19;4975140;28;20452;-74
2021/10/01 09:15:41;;;;;;;0.70;0.60;;;;;;;20.55;100.00;-21238.38;4976871;28;20821;-74
2021/10/01 09:18:08;;;;;;;0.70;0.60;;;;;;;20.62;100.00;-21240.16;4976994;28;20502;-74
2021/10/01 09:20:38;;;;;;;0.70;0.60;;;;;;;21.01;100.00;-21250.66;4976464;28;20443;-74
2021/10/01 09:23:17;;;;;;;0.80;0.80;;;;;;;20.47;100.00;-21236.19;4975160;28;20984;-75
2021/10/01 09:25:44;;;;;;;0.70;0.60;;;;;;;20.86;100.00;-21246.69;4976680;28;20979;-74
2021/10/01 09:28:12;;;;;;;0.70;0.60;;;;;;;21.49;100.00;-21263.47;4967303;28;20547;-74
2021/10/01 09:30:44;;;;;;;0.70;0.60;;;;;;;21.40;100.00;-21261.03;4963914;28;20475;-74
2021/10/01 09:33:13;;;;;;;0.70;0.50;;;;;;;21.28;100.00;-21257.88;4955919;29;20495;-75
2021/10/01 09:35:43;;;;;;;0.80;0.70;;;;;;;21.46;100.00;-21262.66;4957360;28;20491;-73
2021/10/01 09:38:13;;;;;;;0.70;0.50;;;;;;;20.97;100.00;-21249.69;4961646;28;20463;-75
2021/10/01 09:40:45;;;;;;;0.70;0.60;;;;;;;21.50;100.00;-21263.63;4975071;28;20440;-76
2021/10/01 09:43:27;;;;;;;0.80;0.70;;;;;;;21.41;100.00;-21261.44;4975891;28;20435;-76
2021/10/01 09:46:03;;;;;;;0.70;0.50;;;;;;;21.61;100.00;-21266.75;4989031;28;20444;-75
2021/10/01 09:48:33;;;;;;;0.70;0.60;;;;;;;21.44;100.00;-21262.13;4974659;28;20518;-75
2021/10/01 09:51:07;;;;;;;0.70;0.60;;;;;;;21.44;100.00;-21262.13;4991014;28;20458;-75
2021/10/01 09:53:42;;;;;;;0.80;0.60;;;;;;;21.23;100.00;-21256.66;4975360;28;20462;-75
2021/10/01 09:56:21;;;;;;;0.70;0.60;;;;;;;20.96;100.00;-21249.28;4976010;28;20944;-75
2021/10/01 09:59:10;;;;;;;0.80;0.60;;;;;;;20.43;100.00;-21235.22;4975649;28;20547;-76
2021/10/01 10:01:57;;;;;;;0.80;0.60;;;;;;;20.25;100.00;-21230.44;4973505;28;20444;-76
2021/10/01 10:04:26;;;;;;;0.80;0.70;;;;;;;20.50;100.00;-21237.00;4975748;28;20566;-76
2021/10/01 10:06:54;;;;;;;0.80;0.70;;;;;;;20.83;100.00;-21245.75;4975789;28;20463;-76
2021/10/01 10:09:32;;;;;;;0.80;0.60;;;;;;;21.38;100.00;-21260.47;4974286;28;20956;-76
2021/10/01 10:12:02;;;;;;;0.77;0.70;;;;;;;21.49;100.00;-21263.47;4973996;28;20455;-77
2021/10/01 10:14:34;;;;;;;0.70;0.60;;;;;;;21.01;100.00;-21250.66;4970731;28;20545;-76
2021/10/01 10:17:11;;;;;;;0.70;0.60;;;;;;;21.93;100.00;-21275.34;4954867;29;20425;-76
2021/10/01 10:19:38;;;;;;;0.77;0.60;;;;;;;21.63;100.00;-21267.16;4955091;28;20864;-76
2021/10/01 10:22:04;;;;;;;0.80;0.60;;;;;;;21.43;100.00;-21261.84;4962456;28;20452;-76
2021/10/01 10:24:32;;;;;;;0.80;0.70;;;;;;;21.43;100.00;-21261.84;4975329;28;20493;-75
2021/10/01 10:26:59;;;;;;;0.80;0.70;;;;;;;21.22;100.00;-21256.25;4990365;28;20474;-76
2021/10/01 10:29:28;;;;;;;0.80;0.60;;;;;;;21.40;100.00;-21261.16;4975556;28;20463;-76
2021/10/01 10:31:56;;;;;;;0.70;0.63;;;;;;;21.20;100.00;-21255.84;4973969;28;20951;-75
2021/10/01 10:34:27;;;;;;;0.70;0.60;;;;;;;21.57;100.00;-21265.53;4973766;28;20847;-76
2021/10/01 10:37:07;;;;;;;0.70;0.60;;;;;;;22.35;100.00;-21286.38;4972999;28;20458;-75
2021/10/01 10:39:53;;;;;;;0.73;0.60;;;;;;;22.59;100.00;-21292.78;4974282;28;20971;-76
2021/10/01 10:42:35;;;;;;;0.70;0.60;;;;;;;22.03;100.00;-21277.91;4955753;28;20448;-76
2021/10/01 10:45:17;;;;;;;0.70;0.60;;;;;;;21.97;100.00;-21276.28;4955854;28;20981;-75
2021/10/01 10:47:51;;;;;;;0.70;0.60;;;;;;;21.88;100.00;-21273.97;4954579;29;20487;-75
2021/10/01 10:50:38;;;;;;;0.80;0.73;;;;;;;22.13;100.00;-21280.50;4962528;28;20915;-75
2021/10/01 10:53:14;;;;;;;0.70;0.60;;;;;;;22.33;100.00;-21285.81;4974507;28;20462;-76
2021/10/01 10:55:44;;;;;;;0.70;0.63;;;;;;;22.38;100.00;-21287.19;4975546;28;20486;-75
2021/10/01 10:58:39;;;;;;;0.70;0.60;;;;;;;21.98;100.00;-21276.56;4973587;28;20455;-76
2021/10/01 11:01:36;;;;;;;0.70;0.70;;;;;;;21.66;100.00;-21268.13;4971366;28;20510;-75
2021/10/01 11:04:31;;;;;;;0.73;0.60;;;;;;;21.94;100.00;-21275.47;4974568;28;20459;-75
2021/10/01 11:07:01;;;;;;;0.70;0.70;;;;;;;22.74;100.00;-21296.84;4974849;28;20495;-75
2021/10/01 11:09:31;;;;;;;0.70;0.60;;;;;;;21.98;100.00;-21276.41;4974330;28;21192;-74
2021/10/01 11:12:02;;;;;;;0.70;0.60;;;;;;;21.36;100.00;-21260.06;4974136;28;20538;-75
2021/10/01 11:14:31;;;;;;;0.80;0.70;;;;;;;21.27;100.00;-21257.47;4972908;28;20812;-75
2021/10/01 11:17:19;;;;;;;0.80;0.70;;;;;;;20.84;100.00;-21246.16;4973574;28;20957;-75
2021/10/01 11:19:52;;;;;;;0.80;0.60;;;;;;;20.49;100.00;-21236.72;4973510;28;20810;-76
2021/10/01 11:22:28;;;;;;;0.77;0.60;;;;;;;19.86;100.00;-21219.78;4973073;28;20436;-75
2021/10/01 11:24:57;;;;;;;1.20;1.10;;;;;;;20.26;100.00;-21230.72;4973408;28;20800;-75
2021/10/01 11:27:25;;;;;;;0.80;0.70;;;;;;;20.33;100.00;-21232.34;4972265;28;20430;-74
2021/10/01 11:29:52;;;;;;;0.80;0.60;;;;;;;20.64;100.00;-21240.81;4955548;28;20407;-75
2021/10/01 11:32:22;;;;;;;0.80;0.67;;;;;;;21.25;100.00;-21256.94;4955323;28;20496;-76
2021/10/01 11:34:55;;;;;;;0.77;0.67;;;;;;;22.04;100.00;-21278.19;4958294;28;20419;-76
2021/10/01 11:37:25;;;;;;;0.80;0.70;;;;;;;22.05;100.00;-21278.31;4973481;28;20416;-76
2021/10/01 11:39:54;;;;;;;0.77;0.60;;;;;;;21.85;100.00;-21273.16;4973047;28;20447;-75
2021/10/01 11:42:23;;;;;;;0.70;0.70;;;;;;;21.77;100.00;-21270.97;4974375;28;20457;-76
2021/10/01 11:44:52;;;;;;;0.80;0.60;;;;;;;21.45;100.00;-21262.38;4973885;28;20807;-75
2021/10/01 11:47:20;;;;;;;0.80;0.80;;;;;;;21.27;100.00;-21257.47;4973423;28;20472;-75
2021/10/01 11:49:56;;;;;;;0.93;0.83;;;;;;;20.98;100.00;-21249.84;4972742;28;20513;-74
2021/10/01 11:52:25;;;;;;;0.70;0.60;;;;;;;20.95;100.00;-21249.00;4975112;28;20864;-76
2021/10/01 11:54:55;;;;;;;0.80;0.70;;;;;;;21.46;100.00;-21262.66;4978632;28;20451;-77
2021/10/01 11:57:25;;;;;;;0.87;0.80;;;;;;;20.95;100.00;-21249.16;4977089;28;20444;-75
2021/10/01 11:59:57;;;;;;;0.80;0.70;;;;;;;21.11;100.00;-21253.38;4962255;28;21005;-75
2021/10/01 12:02:28;;;;;;;0.80;0.70;;;;;;;21.09;100.00;-21252.69;4961759;28;20432;-75
2021/10/01 12:04:56;;;;;;;0.70;0.60;;;;;;;20.99;100.00;-21250.25;4972151;28;20471;-76
2021/10/01 12:07:24;;;;;;;0.70;0.60;;;;;;;20.77;100.00;-21244.09;4976441;28;20475;-75
2021/10/01 12:10:04;;;;;;;0.70;0.60;;;;;;;20.94;100.00;-21248.75;4977529;28;20529;-76
2021/10/01 12:12:32;;;;;;;0.70;0.60;;;;;;;21.46;100.00;-21262.66;4977662;28;20435;-74
2021/10/01 12:15:02;;;;;;;0.80;0.70;;;;;;;21.41;100.00;-21261.44;4976975;28;20452;-74
2021/10/01 12:17:38;;;;;;;0.70;0.60;;;;;;;21.85;100.00;-21273.03;4969926;28;20925;-75
2021/10/01 12:20:06;;;;;;;0.80;0.70;;;;;;;22.28;100.00;-21284.47;4958264;28;20899;-76
2021/10/01 12:22:34;;;;;;;0.80;0.70;;;;;;;21.85;100.00;-21273.16;4958033;28;20968;-75
2021/10/01 12:25:02;;;;;;;0.80;0.70;;;;;;;21.94;100.00;-21275.47;4957906;28;20987;-75
2021/10/01 12:27:40;;;;;;;0.70;0.63;;;;;;;22.10;100.00;-21279.81;4975774;28;20438;-76
2021/10/01 12:30:08;;;;;;;0.80;0.70;;;;;;;22.52;100.00;-21291.00;4973166;28;20517;-76
2021/10/01 12:32:35;;;;;;;0.80;0.60;;;;;;;22.96;100.00;-21302.72;4959291;28;20426;-75
2021/10/01 12:35:26;;;;;;;0.80;0.70;;;;;;;22.56;100.00;-21291.94;4970693;28;20439;-75
2021/10/01 12:37:54;;;;;;;0.80;0.70;;;;;;;22.40;100.00;-21287.72;4957879;28;20423;-75
2021/10/01 12:40:24;;;;;;;0.77;0.67;;;;;;;21.92;100.00;-21274.94;4991608;28;20410;-76
2021/10/01 12:42:52;;;;;;;0.70;0.60;;;;;;;21.95;100.00;-21275.75;4976786;28;20482;-76
2021/10/01 12:45:21;;;;;;;0.70;0.60;;;;;;;22.05;100.00;-21278.31;4976223;28;20943;-74
2021/10/01 12:47:50;;;;;;;0.80;0.70;;;;;;;21.32;100.00;-21258.84;4975295;28;20460;-75
2021/10/01 12:50:19;;;;;;;0.70;0.60;;;;;;;21.32;100.00;-21258.84;4976972;28;20484;-74
2021/10/01 12:52:56;;;;;;;0.80;0.70;;;;;;;21.47;100.00;-21262.94;4976627;28;20438;-74
2021/10/01 12:55:24;;;;;;;0.80;0.70;;;;;;;21.91;100.00;-21274.78;4976812;28;20440;-75
2021/10/01 12:57:51;;;;;;;0.80;0.60;;;;;;;22.47;100.00;-21289.63;4976859;28;20841;-76
2021/10/01 13:00:20;;;;;;;0.70;0.60;;;;;;;22.41;100.00;-21288.00;4975642;28;20868;-76
2021/10/01 13:02:48;;;;;;;0.80;0.70;;;;;;;22.75;100.00;-21297.13;4976267;28;20428;-75
2021/10/01 13:05:21;;;;;;;0.80;0.70;;;;;;;22.00;100.00;-21277.09;4976491;28;20499;-75
2021/10/01 13:07:50;;;;;;;0.70;0.70;;;;;;;21.86;100.00;-21273.28;4976947;28;20457;-77